createdAt,value
2017-10-10T09:27:25.953Z,924.52
2017-10-10T09:27:45.496Z,924.57
2017-10-10T09:28:04.946Z,924.55
2017-10-10T09:28:24.470Z,924.54
2017-10-10T09:28:43.959Z,924.58
2017-10-10T09:29:04.301Z,924.58
2017-10-10T09:29:23.939Z,924.56
2017-10-10T09:29:43.417Z,924.55
2017-10-10T09:30:02.960Z,924.57
2017-10-10T09:30:49.375Z,924.57
2017-10-10T09:31:10.778Z,924.56
2017-10-10T09:31:41.596Z,924.59
2017-10-10T09:32:01.875Z,924.56
2017-10-10T09:32:22.471Z,924.58
2017-10-10T09:32:41.593Z,924.57
2017-10-10T09:33:00.879Z,924.57
2017-10-10T09:33:21.143Z,924.54
2017-10-10T09:33:40.746Z,924.56
2017-10-10T09:34:00.333Z,924.58
2017-10-10T09:34:20.602Z,924.56
2017-10-10T09:34:40.359Z,924.57
2017-10-10T09:35:00.520Z,924.57
2017-10-10T09:35:23.840Z,924.56
2017-10-10T09:35:52.145Z,924.57
2017-10-10T09:36:20.442Z,924.58
2017-10-10T09:36:43.422Z,924.57
2017-10-10T09:37:04.225Z,924.57
2017-10-10T09:37:23.269Z,924.6
2017-10-10T09:37:42.306Z,924.6
2017-10-10T09:38:02.095Z,924.62
2017-10-10T09:38:21.461Z,924.63
2017-10-10T09:38:41.444Z,924.59
2017-10-10T09:39:00.815Z,924.54
2017-10-10T09:39:20.451Z,924.61
2017-10-10T09:39:54.069Z,924.59
2017-10-10T09:40:13.516Z,924.58
2017-10-10T09:40:33.254Z,924.6
2017-10-10T09:41:07.560Z,924.59
2017-10-10T09:41:28.188Z,924.63
2017-10-10T09:41:52.030Z,924.64
2017-10-10T09:42:35.014Z,924.65
2017-10-10T09:42:55.221Z,924.65
2017-10-10T09:43:15.173Z,924.65
2017-10-10T09:43:34.932Z,924.68
2017-10-10T09:43:55.680Z,924.67
2017-10-10T09:44:16.337Z,924.73
2017-10-10T09:44:50.220Z,924.73
2017-10-10T09:45:10.761Z,924.72
2017-10-10T09:45:30.393Z,924.79
2017-10-10T09:45:50.877Z,924.8
2017-10-10T09:46:13.389Z,924.75
2017-10-10T09:46:33.487Z,924.78
2017-10-10T09:46:53.532Z,924.78
2017-10-10T09:47:14.537Z,924.79
2017-10-10T09:47:33.040Z,924.81
2017-10-10T09:47:52.154Z,924.82
2017-10-10T09:48:12.515Z,924.81
2017-10-10T09:48:32.734Z,924.83
2017-10-10T09:48:52.859Z,924.83
2017-10-10T09:49:27.179Z,924.78
2017-10-10T09:50:04.019Z,924.75
2017-10-10T09:50:46.043Z,924.75
2017-10-10T09:51:06.154Z,924.77
2017-10-10T09:51:26.795Z,924.79
2017-10-10T09:51:50.577Z,924.8
2017-10-10T09:52:24.033Z,924.78
2017-10-10T09:52:44.412Z,924.8
2017-10-10T09:53:04.758Z,924.79
2017-10-10T09:53:25.012Z,924.77
2017-10-10T09:53:44.006Z,924.79
2017-10-10T09:54:04.438Z,924.8
2017-10-10T09:54:23.542Z,924.81
2017-10-10T09:54:44.143Z,924.77
2017-10-10T09:55:04.846Z,924.8
2017-10-10T09:55:25.468Z,924.8
2017-10-10T09:55:45.595Z,924.81
2017-10-10T09:56:06.085Z,924.78
2017-10-10T09:56:26.449Z,924.8
2017-10-10T09:56:45.554Z,924.8
2017-10-10T09:57:05.693Z,924.77
2017-10-10T09:57:25.765Z,924.78
2017-10-10T09:57:59.827Z,924.78
2017-10-10T09:58:19.617Z,924.78
2017-10-10T09:58:39.252Z,924.79
2017-10-10T09:58:58.276Z,924.76
2017-10-10T09:59:17.568Z,924.76
2017-10-10T09:59:37.542Z,924.82
2017-10-10T09:59:57.815Z,924.82
2017-10-10T10:00:17.941Z,924.79
2017-10-10T10:00:38.800Z,924.82
2017-10-10T10:00:58.104Z,924.84
2017-10-10T10:01:17.771Z,924.82
2017-10-10T10:01:51.247Z,924.78
2017-10-10T10:02:11.507Z,924.77
2017-10-10T10:02:31.737Z,924.8
2017-10-10T10:02:51.506Z,924.81
2017-10-10T10:03:11.786Z,924.84
2017-10-10T10:03:45.222Z,924.83
2017-10-10T10:04:04.890Z,924.85
2017-10-10T10:04:24.706Z,924.85
2017-10-10T10:04:44.401Z,924.88
2017-10-10T10:05:05.105Z,924.86
2017-10-10T10:05:29.360Z,924.85
2017-10-10T10:05:50.068Z,924.91
2017-10-10T10:06:09.890Z,924.85
2017-10-10T10:06:29.509Z,924.88
2017-10-10T10:06:49.824Z,924.9
2017-10-10T10:07:10.095Z,924.89
2017-10-10T10:07:29.276Z,924.91
2017-10-10T10:07:47.754Z,924.89
2017-10-10T10:08:06.791Z,924.91
2017-10-10T10:08:27.240Z,924.91
2017-10-10T10:08:46.882Z,924.92
2017-10-10T10:09:06.691Z,924.9
2017-10-10T10:09:26.257Z,924.9
2017-10-10T10:09:45.231Z,924.91
2017-10-10T10:10:18.013Z,924.94
2017-10-10T10:10:38.448Z,924.97
2017-10-10T10:10:58.137Z,924.95
2017-10-10T10:11:18.941Z,924.96
2017-10-10T10:11:38.793Z,924.99
2017-10-10T10:11:59.245Z,925
2017-10-10T10:12:19.645Z,924.96
2017-10-10T10:12:38.794Z,924.99
2017-10-10T10:12:58.470Z,925.01
2017-10-10T10:13:18.895Z,924.99
2017-10-10T10:13:39.255Z,924.98
2017-10-10T10:13:58.919Z,925.01
2017-10-10T10:14:18.765Z,924.98
2017-10-10T10:14:38.547Z,924.96
2017-10-10T10:14:57.841Z,925
2017-10-10T10:15:18.397Z,925.03
2017-10-10T10:15:37.749Z,924.98
2017-10-10T10:15:57.586Z,925.01
2017-10-10T10:16:17.608Z,925
2017-10-10T10:16:37.958Z,925.02
2017-10-10T10:16:58.971Z,925.05
2017-10-10T10:17:20.161Z,925.05
2017-10-10T10:17:53.317Z,925.03
2017-10-10T10:18:15.177Z,925.05
2017-10-10T10:18:41.295Z,925.03
2017-10-10T10:19:02.199Z,925.06
2017-10-10T10:19:22.448Z,925.06
2017-10-10T10:19:43.384Z,925.07
2017-10-10T10:20:03.222Z,925.06
2017-10-10T10:20:23.774Z,925.05
2017-10-10T10:20:45.135Z,925.11
2017-10-10T10:21:09.606Z,925.1
2017-10-10T10:21:30.462Z,925.11
2017-10-10T10:21:50.277Z,925.17
2017-10-10T10:22:09.916Z,925.1
2017-10-10T10:22:30.257Z,925.14
2017-10-10T10:22:49.303Z,925.12
2017-10-10T10:23:08.574Z,925.15
2017-10-10T10:23:28.571Z,925.16
2017-10-10T10:23:48.330Z,925.15
2017-10-10T10:24:07.403Z,925.18
2017-10-10T10:24:27.224Z,925.16
2017-10-10T10:24:48.862Z,925.18
2017-10-10T10:25:10.137Z,925.18
2017-10-10T10:25:30.989Z,925.18
2017-10-10T10:25:51.892Z,925.17
2017-10-10T10:26:11.971Z,925.21
2017-10-10T10:26:32.645Z,925.18
2017-10-10T10:26:52.856Z,925.17
2017-10-10T10:27:26.796Z,925.19
2017-10-10T10:27:47.566Z,925.19
2017-10-10T10:28:08.240Z,925.2
2017-10-10T10:28:27.158Z,925.2
2017-10-10T10:28:48.052Z,925.16
2017-10-10T10:29:08.612Z,925.18
2017-10-10T10:29:29.028Z,925.19
2017-10-10T10:29:49.754Z,925.22
2017-10-10T10:30:09.844Z,925.18
2017-10-10T10:30:31.104Z,925.19
2017-10-10T10:30:50.821Z,925.15
2017-10-10T10:31:10.419Z,925.18
2017-10-10T10:31:31.235Z,925.2
2017-10-10T10:31:52.223Z,925.18
2017-10-10T10:32:12.963Z,925.23
2017-10-10T10:32:32.964Z,925.23
2017-10-10T10:32:54.367Z,925.22
2017-10-10T10:33:14.028Z,925.22
2017-10-10T10:33:34.163Z,925.24
2017-10-10T10:33:53.711Z,925.2
2017-10-10T10:34:14.589Z,925.22
2017-10-10T10:34:35.702Z,925.26
2017-10-10T10:34:56.704Z,925.22
2017-10-10T10:35:16.308Z,925.2
2017-10-10T10:35:35.586Z,925.23
2017-10-10T10:35:55.709Z,925.21
2017-10-10T10:36:15.352Z,925.23
2017-10-10T10:36:35.280Z,925.25
2017-10-10T10:36:55.877Z,925.24
2017-10-10T10:37:15.480Z,925.22
2017-10-10T10:37:35.489Z,925.19
2017-10-10T10:37:56.042Z,925.21
2017-10-10T10:38:17.153Z,925.24
2017-10-10T10:38:37.917Z,925.22
2017-10-10T10:38:58.822Z,925.21
2017-10-10T10:39:19.964Z,925.19
2017-10-10T10:39:39.979Z,925.19
2017-10-10T10:40:00.396Z,925.24
2017-10-10T10:40:20.596Z,925.19
2017-10-10T10:40:40.683Z,925.23
2017-10-10T10:41:01.129Z,925.24
2017-10-10T10:41:22.004Z,925.26
2017-10-10T10:41:42.271Z,925.28
2017-10-10T10:42:03.173Z,925.23
2017-10-10T10:42:23.886Z,925.27
2017-10-10T10:42:44.190Z,925.29
2017-10-10T10:43:04.511Z,925.25
2017-10-10T10:43:24.514Z,925.23
2017-10-10T10:43:43.601Z,925.23
2017-10-10T10:44:04.160Z,925.25
2017-10-10T10:44:23.601Z,925.22
2017-10-10T10:44:44.748Z,925.25
2017-10-10T10:45:04.617Z,925.26
2017-10-10T10:45:25.309Z,925.24
2017-10-10T10:45:46.812Z,925.23
2017-10-10T10:46:07.135Z,925.22
2017-10-10T10:46:26.508Z,925.28
2017-10-10T10:46:45.651Z,925.28
2017-10-10T10:47:20.027Z,925.31
2017-10-10T10:47:40.750Z,925.32
2017-10-10T10:48:00.867Z,925.34
2017-10-10T10:48:21.708Z,925.34
2017-10-10T10:48:42.365Z,925.34
2017-10-10T10:49:03.566Z,925.36
2017-10-10T10:49:24.712Z,925.39
2017-10-10T10:49:45.657Z,925.38
2017-10-10T10:50:07.709Z,925.35
2017-10-10T10:50:29.259Z,925.39
2017-10-10T10:50:50.076Z,925.4
2017-10-10T10:51:10.206Z,925.38
2017-10-10T10:51:30.166Z,925.38
2017-10-10T10:51:50.859Z,925.38
2017-10-10T10:52:11.601Z,925.39
2017-10-10T10:52:33.562Z,925.36
2017-10-10T10:52:54.073Z,925.39
2017-10-10T10:53:15.866Z,925.38
2017-10-10T10:53:37.208Z,925.39
2017-10-10T10:53:58.302Z,925.4
2017-10-10T10:54:19.558Z,925.41
2017-10-10T10:54:41.354Z,925.43
2017-10-10T10:55:03.071Z,925.42
2017-10-10T10:55:24.555Z,925.41
2017-10-10T10:55:46.526Z,925.39
2017-10-10T10:56:08.666Z,925.39
2017-10-10T10:56:30.249Z,925.4
2017-10-10T10:56:51.547Z,925.39
2017-10-10T10:57:11.848Z,925.43
2017-10-10T10:57:31.737Z,925.41
2017-10-10T10:57:53.146Z,925.46
2017-10-10T10:58:12.417Z,925.42
2017-10-10T10:58:33.103Z,925.43
2017-10-10T10:58:54.923Z,925.46
2017-10-10T10:59:15.970Z,925.45
2017-10-10T10:59:37.366Z,925.46
2017-10-10T10:59:59.961Z,925.43
2017-10-10T11:00:21.776Z,925.46
2017-10-10T11:00:44.380Z,925.44
2017-10-10T11:01:05.449Z,925.44
2017-10-10T11:01:28.293Z,925.42
2017-10-10T11:01:50.360Z,925.42
2017-10-10T11:02:14.327Z,925.45
2017-10-10T11:02:37.806Z,925.46
2017-10-10T11:03:04.080Z,925.5
2017-10-10T11:03:27.761Z,925.45
2017-10-10T11:03:48.628Z,925.43
2017-10-10T11:04:12.847Z,925.48
2017-10-10T11:04:36.304Z,925.47
2017-10-10T11:05:00.187Z,925.49
2017-10-10T11:05:22.093Z,925.48
2017-10-10T11:05:42.684Z,925.48
2017-10-10T11:06:05.551Z,925.51
2017-10-10T11:06:27.440Z,925.49
2017-10-10T11:06:49.215Z,925.47
2017-10-10T11:07:10.578Z,925.51
2017-10-10T11:07:32.424Z,925.5
2017-10-10T11:07:54.312Z,925.53
2017-10-10T11:08:16.090Z,925.51
2017-10-10T11:08:36.811Z,925.48
2017-10-10T11:08:59.757Z,925.51
2017-10-10T11:09:29.946Z,925.53
2017-10-10T11:10:06.607Z,925.56
2017-10-10T11:10:46.804Z,925.55
2017-10-10T11:11:15.879Z,925.54
2017-10-10T11:11:36.936Z,925.58
2017-10-10T11:11:58.828Z,925.56
2017-10-10T11:12:20.327Z,925.58
2017-10-10T11:12:41.318Z,925.59
2017-10-10T11:13:17.584Z,925.6
2017-10-10T11:13:37.666Z,925.61
2017-10-10T11:13:59.060Z,925.61
2017-10-10T11:14:20.843Z,925.61
2017-10-10T11:14:42.582Z,925.63
2017-10-10T11:15:03.812Z,925.63
2017-10-10T11:15:39.496Z,925.64
2017-10-10T11:16:00.711Z,925.63
2017-10-10T11:16:21.282Z,925.6
2017-10-10T11:16:42.427Z,925.63
2017-10-10T11:17:04.475Z,925.63
2017-10-10T11:17:25.527Z,925.64
2017-10-10T11:17:46.610Z,925.66
2017-10-10T11:18:07.907Z,925.67
2017-10-10T11:18:28.614Z,925.62
2017-10-10T11:18:49.734Z,925.64
2017-10-10T11:19:10.558Z,925.66
2017-10-10T11:19:32.351Z,925.65
2017-10-10T11:19:54.315Z,925.67
2017-10-10T11:20:16.445Z,925.69
2017-10-10T11:20:37.561Z,925.65
2017-10-10T11:20:59.149Z,925.68
2017-10-10T11:21:21.058Z,925.69
2017-10-10T11:21:42.521Z,925.64
2017-10-10T11:22:05.163Z,925.7
2017-10-10T11:22:26.736Z,925.71
2017-10-10T11:22:48.119Z,925.75
2017-10-10T11:23:10.447Z,925.71
2017-10-10T11:23:32.286Z,925.69
2017-10-10T11:24:28.604Z,925.71
2017-10-10T11:24:50.329Z,925.7
2017-10-10T11:25:10.714Z,925.72
2017-10-10T11:25:31.052Z,925.74
2017-10-10T11:25:53.812Z,925.72
2017-10-10T11:26:16.778Z,925.7
2017-10-10T11:26:37.273Z,925.75
2017-10-10T11:26:58.781Z,925.76
2017-10-10T11:27:19.366Z,925.73
2017-10-10T11:27:40.645Z,925.76
2017-10-10T11:28:02.687Z,925.76
2017-10-10T11:28:24.439Z,925.73
2017-10-10T11:28:49.793Z,925.73
2017-10-10T11:29:10.833Z,925.69
2017-10-10T11:29:31.886Z,925.69
2017-10-10T11:29:53.675Z,925.76
2017-10-10T11:30:15.361Z,925.68
2017-10-10T11:30:39.758Z,925.68
2017-10-10T11:31:00.209Z,925.73
2017-10-10T11:31:21.727Z,925.71
2017-10-10T11:31:44.716Z,925.71
2017-10-10T11:32:16.517Z,925.7
2017-10-10T11:32:45.080Z,925.78
2017-10-10T11:33:06.970Z,925.77
2017-10-10T11:33:30.918Z,925.75
2017-10-10T11:33:49.992Z,925.74
2017-10-10T11:34:11.056Z,925.77
2017-10-10T11:34:32.915Z,925.79
2017-10-10T11:34:54.060Z,925.81
2017-10-10T11:35:15.534Z,925.79
2017-10-10T11:35:35.566Z,925.82
2017-10-10T11:35:55.564Z,925.78
2017-10-10T11:36:16.233Z,925.81
2017-10-10T11:36:36.877Z,925.84
2017-10-10T11:36:58.069Z,925.83
2017-10-10T11:37:20.160Z,925.81
2017-10-10T11:37:41.774Z,925.83
2017-10-10T11:38:03.136Z,925.88
2017-10-10T11:38:24.107Z,925.86
2017-10-10T11:38:44.007Z,925.87
2017-10-10T11:39:05.830Z,925.85
2017-10-10T11:39:28.376Z,925.9
2017-10-10T11:39:48.944Z,925.87
2017-10-10T11:40:10.062Z,925.83
2017-10-10T11:40:31.153Z,925.92
2017-10-10T11:40:53.697Z,925.9
2017-10-10T11:41:14.771Z,925.87
2017-10-10T11:41:37.207Z,925.93
2017-10-10T11:41:59.017Z,925.87
2017-10-10T11:42:20.971Z,925.93
2017-10-10T11:42:43.682Z,925.91
2017-10-10T11:43:05.346Z,925.93
2017-10-10T11:43:27.787Z,925.95
2017-10-10T11:43:49.420Z,925.96
2017-10-10T11:44:12.444Z,925.96
2017-10-10T11:44:33.462Z,925.95
2017-10-10T11:44:57.523Z,925.94
2017-10-10T11:45:20.873Z,925.96
2017-10-10T11:45:41.568Z,925.95
2017-10-10T11:46:04.709Z,925.95
2017-10-10T11:46:26.523Z,925.97
2017-10-10T11:46:47.832Z,925.95
2017-10-10T11:47:08.378Z,925.95
2017-10-10T11:47:29.379Z,925.97
2017-10-10T11:47:50.759Z,925.99
2017-10-10T11:48:11.782Z,925.98
2017-10-10T11:48:36.315Z,925.99
2017-10-10T11:48:57.583Z,926.02
2017-10-10T11:49:21.370Z,926.06
2017-10-10T11:49:43.508Z,926.06
2017-10-10T11:50:03.806Z,926.05
2017-10-10T11:50:23.543Z,926.11
2017-10-10T11:50:44.383Z,926.07
2017-10-10T11:51:05.923Z,926.09
2017-10-10T11:51:26.612Z,926.09
2017-10-10T11:51:47.235Z,926.16
2017-10-10T11:52:08.852Z,926.16
2017-10-10T11:52:30.319Z,926.19
2017-10-10T11:52:50.636Z,926.22
2017-10-10T11:53:11.565Z,926.16
2017-10-10T11:53:33.123Z,926.21
2017-10-10T11:53:53.736Z,926.19
2017-10-10T11:54:15.031Z,926.18
2017-10-10T11:54:35.585Z,926.23
2017-10-10T11:54:57.159Z,926.2
2017-10-10T11:55:16.985Z,926.19
2017-10-10T11:55:37.352Z,926.23
2017-10-10T11:56:00.773Z,926.22
2017-10-10T11:56:20.999Z,926.23
2017-10-10T11:56:41.080Z,926.2
2017-10-10T11:57:02.515Z,926.19
2017-10-10T11:57:21.182Z,926.18
2017-10-10T11:57:42.054Z,926.22
2017-10-10T11:58:02.411Z,926.22
2017-10-10T11:58:23.822Z,926.22
2017-10-10T11:58:43.083Z,926.21
2017-10-10T11:59:05.028Z,926.26
2017-10-10T11:59:25.985Z,926.2
2017-10-10T11:59:45.650Z,926.24
2017-10-10T12:00:06.646Z,926.2
2017-10-10T12:00:28.208Z,926.23
2017-10-10T12:00:47.972Z,926.24
2017-10-10T12:01:08.565Z,926.21
2017-10-10T12:01:30.275Z,926.19
2017-10-10T12:01:52.237Z,926.23
2017-10-10T12:02:12.704Z,926.22
2017-10-10T12:02:34.020Z,926.23
2017-10-10T12:02:54.955Z,926.25
2017-10-10T12:03:15.016Z,926.23
2017-10-10T12:03:35.938Z,926.25
2017-10-10T12:03:58.274Z,926.32
2017-10-10T12:04:20.431Z,926.27
2017-10-10T12:04:41.991Z,926.3
2017-10-10T12:05:03.963Z,926.28
2017-10-10T12:05:25.859Z,926.31
2017-10-10T12:05:46.000Z,926.29
2017-10-10T12:06:05.677Z,926.25
2017-10-10T12:06:26.623Z,926.26
2017-10-10T12:06:47.511Z,926.25
2017-10-10T12:07:08.913Z,926.28
2017-10-10T12:07:30.120Z,926.3
2017-10-10T12:07:51.845Z,926.26
2017-10-10T12:08:21.355Z,926.27
2017-10-10T12:08:57.843Z,926.3
2017-10-10T12:09:36.724Z,926.34
2017-10-10T12:10:10.108Z,926.35
2017-10-10T12:10:33.000Z,926.35
2017-10-10T12:10:59.909Z,926.31
2017-10-10T12:11:30.858Z,926.35
2017-10-10T12:12:00.426Z,926.31
2017-10-10T12:12:26.487Z,926.33
2017-10-10T12:12:47.595Z,926.31
2017-10-10T12:13:08.192Z,926.28
2017-10-10T12:13:29.018Z,926.29
2017-10-10T12:13:51.591Z,926.29
2017-10-10T12:14:18.081Z,926.3
2017-10-10T12:14:40.771Z,926.28
2017-10-10T12:15:02.656Z,926.22
2017-10-10T12:15:27.513Z,926.27
2017-10-10T12:15:54.873Z,926.27
2017-10-10T12:16:22.106Z,926.25
2017-10-10T12:16:48.064Z,926.26
2017-10-10T12:17:15.012Z,926.23
2017-10-10T12:17:41.365Z,926.25
2017-10-10T12:18:03.888Z,926.26
2017-10-10T12:18:24.060Z,926.25
2017-10-10T12:18:44.752Z,926.26
2017-10-10T12:19:05.710Z,926.24
2017-10-10T12:19:26.038Z,926.26
2017-10-10T12:19:46.884Z,926.26
2017-10-10T12:20:06.413Z,926.28
2017-10-10T12:20:26.543Z,926.31
2017-10-10T12:20:48.981Z,926.28
2017-10-10T12:21:13.866Z,926.3
2017-10-10T12:21:36.125Z,926.29
2017-10-10T12:21:58.178Z,926.3
2017-10-10T12:22:19.601Z,926.29
2017-10-10T12:22:40.015Z,926.29
2017-10-10T12:23:00.498Z,926.29
2017-10-10T12:23:21.881Z,926.28
2017-10-10T12:23:43.664Z,926.3
2017-10-10T12:24:03.759Z,926.32
2017-10-10T12:24:24.030Z,926.29
2017-10-10T12:24:43.133Z,926.34
2017-10-10T12:25:03.356Z,926.32
2017-10-10T12:25:24.438Z,926.32
2017-10-10T12:25:45.016Z,926.3
2017-10-10T12:26:06.155Z,926.32
2017-10-10T12:26:25.573Z,926.28
2017-10-10T12:26:46.446Z,926.26
2017-10-10T12:27:07.402Z,926.25
2017-10-10T12:27:27.367Z,926.28
2017-10-10T12:27:48.199Z,926.28
2017-10-10T12:28:08.017Z,926.29
2017-10-10T12:28:28.833Z,926.3
2017-10-10T12:28:49.864Z,926.26
2017-10-10T12:29:09.285Z,926.25
2017-10-10T12:29:29.876Z,926.26
2017-10-10T12:29:51.185Z,926.23
2017-10-10T12:30:12.492Z,926.27
2017-10-10T12:30:33.013Z,926.23
2017-10-10T12:30:54.226Z,926.25
2017-10-10T12:31:13.964Z,926.31
2017-10-10T12:31:34.708Z,926.25
2017-10-10T12:31:55.582Z,926.25
2017-10-10T12:32:16.800Z,926.25
2017-10-10T12:32:38.171Z,926.23
2017-10-10T12:32:57.523Z,926.26
2017-10-10T12:33:18.486Z,926.24
2017-10-10T12:33:38.417Z,926.22
2017-10-10T12:33:58.712Z,926.21
2017-10-10T12:34:20.237Z,926.21
2017-10-10T12:34:40.540Z,926.25
2017-10-10T12:35:01.063Z,926.24
2017-10-10T12:35:22.568Z,926.24
2017-10-10T12:35:43.627Z,926.22
2017-10-10T12:36:03.691Z,926.21
2017-10-10T12:36:23.179Z,926.21
2017-10-10T12:36:43.900Z,926.17
2017-10-10T12:37:04.707Z,926.22
2017-10-10T12:37:26.198Z,926.2
2017-10-10T12:37:47.526Z,926.18
2017-10-10T12:38:10.106Z,926.2
2017-10-10T12:38:44.432Z,926.16
2017-10-10T12:39:07.977Z,926.15
2017-10-10T12:39:33.230Z,926.14
2017-10-10T12:40:00.252Z,926.15
2017-10-10T12:40:23.330Z,926.15
2017-10-10T12:40:48.298Z,926.12
2017-10-10T12:41:09.559Z,926.14
2017-10-10T12:41:30.824Z,926.13
2017-10-10T12:41:50.625Z,926.14
2017-10-10T12:42:11.095Z,926.14
2017-10-10T12:42:31.239Z,926.12
2017-10-10T12:42:51.797Z,926.11
2017-10-10T12:43:13.063Z,926.13
2017-10-10T12:43:33.386Z,926.13
2017-10-10T12:43:54.616Z,926.17
2017-10-10T12:44:15.173Z,926.13
2017-10-10T12:44:36.693Z,926.16
2017-10-10T12:44:57.578Z,926.14
2017-10-10T12:45:17.260Z,926.14
2017-10-10T12:45:37.484Z,926.14
2017-10-10T12:45:57.952Z,926.12
2017-10-10T12:46:18.924Z,926.16
2017-10-10T12:46:39.601Z,926.12
2017-10-10T12:46:59.828Z,926.17
2017-10-10T12:47:20.112Z,926.18
2017-10-10T12:47:41.240Z,926.14
2017-10-10T12:48:01.307Z,926.12
2017-10-10T12:48:22.269Z,926.16
2017-10-10T12:48:41.790Z,926.15
2017-10-10T12:49:02.693Z,926.17
2017-10-10T12:49:23.389Z,926.19
2017-10-10T12:49:44.983Z,926.17
2017-10-10T12:50:05.447Z,926.16
2017-10-10T12:50:28.379Z,926.14
2017-10-10T12:50:49.611Z,926.14
2017-10-10T12:51:11.083Z,926.15
2017-10-10T12:51:32.249Z,926.17
2017-10-10T12:51:52.824Z,926.18
2017-10-10T12:52:12.713Z,926.15
2017-10-10T12:52:33.680Z,926.17
2017-10-10T12:52:53.642Z,926.15
2017-10-10T12:53:15.454Z,926.14
2017-10-10T12:53:36.517Z,926.13
2017-10-10T12:53:56.176Z,926.2
2017-10-10T12:54:16.250Z,926.15
2017-10-10T12:54:35.795Z,926.13
2017-10-10T12:54:55.369Z,926.12
2017-10-10T12:55:16.465Z,926.12
2017-10-10T12:55:37.259Z,926.16
2017-10-10T12:55:58.806Z,926.14
2017-10-10T12:56:20.258Z,926.19
2017-10-10T12:56:40.081Z,926.2
2017-10-10T12:57:00.281Z,926.14
2017-10-10T12:57:20.590Z,926.2
2017-10-10T12:57:41.907Z,926.18
2017-10-10T12:58:02.961Z,926.16
2017-10-10T12:58:24.163Z,926.19
2017-10-10T12:58:44.147Z,926.19
2017-10-10T12:59:05.452Z,926.17
2017-10-10T12:59:29.643Z,926.14
2017-10-10T12:59:50.450Z,926.16
2017-10-10T13:00:12.913Z,926.19
2017-10-10T13:00:35.179Z,926.14
2017-10-10T13:01:00.402Z,926.14
2017-10-10T13:01:22.607Z,926.16
2017-10-10T13:01:43.550Z,926.13
2017-10-10T13:02:05.484Z,926.14
2017-10-10T13:02:28.209Z,926.15
2017-10-10T13:02:49.408Z,926.12
2017-10-10T13:03:10.671Z,926.13
2017-10-10T13:03:32.647Z,926.12
2017-10-10T13:03:52.965Z,926.14
2017-10-10T13:04:13.579Z,926.15
2017-10-10T13:04:35.168Z,926.1
2017-10-10T13:04:55.347Z,926.09
2017-10-10T13:05:15.845Z,926.07
2017-10-10T13:05:37.182Z,926.06
2017-10-10T13:05:57.745Z,926.05
2017-10-10T13:06:17.930Z,926.06
2017-10-10T13:06:39.384Z,926.1
2017-10-10T13:07:00.826Z,926.05
2017-10-10T13:07:20.669Z,926.07
2017-10-10T13:07:41.928Z,926.02
2017-10-10T13:08:03.414Z,926.06
2017-10-10T13:08:24.365Z,926.06
2017-10-10T13:08:44.870Z,926.05
2017-10-10T13:09:06.047Z,926.07
2017-10-10T13:09:27.331Z,926.04
2017-10-10T13:09:48.752Z,926.03
2017-10-10T13:10:10.212Z,925.99
2017-10-10T13:10:30.900Z,926.01
2017-10-10T13:10:50.734Z,926.04
2017-10-10T13:11:12.394Z,926.06
2017-10-10T13:11:33.662Z,926.02
2017-10-10T13:11:54.069Z,926
2017-10-10T13:12:15.259Z,926.02
2017-10-10T13:12:36.568Z,925.97
2017-10-10T13:12:56.039Z,925.95
2017-10-10T13:13:17.522Z,925.99
2017-10-10T13:13:39.223Z,925.97
2017-10-10T13:14:00.510Z,925.97
2017-10-10T13:14:22.207Z,925.95
2017-10-10T13:14:43.624Z,925.94
2017-10-10T13:15:03.948Z,925.95
2017-10-10T13:15:25.746Z,925.96
2017-10-10T13:15:46.646Z,925.93
2017-10-10T13:16:06.877Z,925.96
2017-10-10T13:16:28.107Z,925.93
2017-10-10T13:16:48.671Z,925.93
2017-10-10T13:17:10.086Z,925.93
2017-10-10T13:17:31.029Z,925.87
2017-10-10T13:17:51.927Z,925.95
2017-10-10T13:18:13.177Z,925.92
2017-10-10T13:18:34.827Z,925.92
2017-10-10T13:18:55.912Z,925.91
2017-10-10T13:19:17.343Z,925.91
2017-10-10T13:19:38.490Z,925.91
2017-10-10T13:19:58.601Z,925.87
2017-10-10T13:20:17.780Z,925.9
2017-10-10T13:20:38.786Z,925.91
2017-10-10T13:20:59.555Z,925.9
2017-10-10T13:21:20.337Z,925.85
2017-10-10T13:21:40.790Z,925.88
2017-10-10T13:22:00.674Z,925.83
2017-10-10T13:22:21.519Z,925.9
2017-10-10T13:22:42.794Z,925.88
2017-10-10T13:23:03.197Z,925.88
2017-10-10T13:23:24.412Z,925.83
2017-10-10T13:23:45.092Z,925.85
2017-10-10T13:24:05.936Z,925.87
2017-10-10T13:24:27.690Z,925.89
2017-10-10T13:24:48.966Z,925.79
2017-10-10T13:25:09.728Z,925.82
2017-10-10T13:25:29.611Z,925.83
2017-10-10T13:25:50.992Z,925.85
2017-10-10T13:26:11.061Z,925.86
2017-10-10T13:26:32.101Z,925.86
2017-10-10T13:26:55.615Z,925.89
2017-10-10T13:27:15.585Z,925.85
2017-10-10T13:27:36.139Z,925.85
2017-10-10T13:27:55.578Z,925.88
2017-10-10T13:28:16.595Z,925.86
2017-10-10T13:28:37.221Z,925.89
2017-10-10T13:28:58.112Z,925.89
2017-10-10T13:29:18.431Z,925.85
2017-10-10T13:29:38.935Z,925.84
2017-10-10T13:29:58.194Z,925.88
2017-10-10T13:30:19.743Z,925.85
2017-10-10T13:30:40.557Z,925.83
2017-10-10T13:31:01.627Z,925.84
2017-10-10T13:31:23.268Z,925.81
2017-10-10T13:31:43.039Z,925.8
2017-10-10T13:32:02.697Z,925.8
2017-10-10T13:32:25.014Z,925.78
2017-10-10T13:32:45.725Z,925.79
2017-10-10T13:33:05.752Z,925.79
2017-10-10T13:33:26.368Z,925.78
2017-10-10T13:33:45.500Z,925.78
2017-10-10T13:34:06.444Z,925.8
2017-10-10T13:34:26.805Z,925.84
2017-10-10T13:34:46.369Z,925.8
2017-10-10T13:35:07.054Z,925.8
2017-10-10T13:35:28.462Z,925.82
2017-10-10T13:35:49.608Z,925.83
2017-10-10T13:36:10.923Z,925.81
2017-10-10T13:36:31.314Z,925.81
2017-10-10T13:36:53.132Z,925.84
2017-10-10T13:37:13.516Z,925.83
2017-10-10T13:37:34.493Z,925.8
2017-10-10T13:37:55.218Z,925.78
2017-10-10T13:38:16.359Z,925.77
2017-10-10T13:38:37.285Z,925.77
2017-10-10T13:38:58.342Z,925.77
2017-10-10T13:39:19.518Z,925.76
2017-10-10T13:39:40.646Z,925.75
2017-10-10T13:40:02.257Z,925.74
2017-10-10T13:40:23.797Z,925.73
2017-10-10T13:40:44.734Z,925.78
2017-10-10T13:41:05.472Z,925.74
2017-10-10T13:41:25.941Z,925.78
2017-10-10T13:41:46.753Z,925.78
2017-10-10T13:42:06.614Z,925.71
2017-10-10T13:42:26.963Z,925.72
2017-10-10T13:42:48.528Z,925.77
2017-10-10T13:43:09.305Z,925.76
2017-10-10T13:43:30.080Z,925.75
2017-10-10T13:43:50.725Z,925.77
2017-10-10T13:44:10.663Z,925.76
2017-10-10T13:44:31.886Z,925.79
2017-10-10T13:44:52.443Z,925.76
2017-10-10T13:45:13.703Z,925.76
2017-10-10T13:45:34.874Z,925.74
2017-10-10T13:45:55.769Z,925.77
2017-10-10T13:46:16.448Z,925.75
2017-10-10T13:46:39.733Z,925.76
2017-10-10T13:47:01.515Z,925.77
2017-10-10T13:47:23.045Z,925.78
2017-10-10T13:47:43.469Z,925.8
2017-10-10T13:48:04.318Z,925.74
2017-10-10T13:48:24.841Z,925.77
2017-10-10T13:48:46.168Z,925.77
2017-10-10T13:49:06.459Z,925.77
2017-10-10T13:49:27.899Z,925.78
2017-10-10T13:49:49.548Z,925.76
2017-10-10T13:50:11.594Z,925.78
2017-10-10T13:50:33.033Z,925.77
2017-10-10T13:50:55.578Z,925.74
2017-10-10T13:51:16.772Z,925.75
2017-10-10T13:51:37.832Z,925.77
2017-10-10T13:52:00.899Z,925.72
2017-10-10T13:52:22.331Z,925.69
2017-10-10T13:52:48.474Z,925.75
2017-10-10T13:53:14.586Z,925.71
2017-10-10T13:53:35.763Z,925.76
2017-10-10T13:53:57.412Z,925.71
2017-10-10T13:54:17.786Z,925.73
2017-10-10T13:54:38.355Z,925.74
2017-10-10T13:55:00.468Z,925.76
2017-10-10T13:55:21.173Z,925.71
2017-10-10T13:55:42.454Z,925.72
2017-10-10T13:56:04.385Z,925.73
2017-10-10T13:56:25.464Z,925.7
2017-10-10T13:56:46.559Z,925.71
2017-10-10T13:57:08.169Z,925.74
2017-10-10T13:57:29.559Z,925.79
2017-10-10T13:57:51.720Z,925.79
2017-10-10T13:58:13.132Z,925.74